sensor_id;sensor_type;location;lat;lon;timestamp;temperature;humidity
66962;HTU21D;53897;51.126;5.868;2023-04-26T00:01:57;22.34;42.36
66962;HTU21D;53897;51.126;5.868;2023-04-26T00:04:24;22.33;42.37
66962;HTU21D;53897;51.126;5.868;2023-04-26T00:06:49;22.34;42.30
66962;HTU21D;53897;51.126;5.868;2023-04-26T00:09:15;22.29;42.32
66962;HTU21D;53897;51.126;5.868;2023-04-26T00:11:43;22.28;42.18
66962;HTU21D;53897;51.126;5.868;2023-04-26T00:14:08;22.28;42.22
66962;HTU21D;53897;51.126;5.868;2023-04-26T00:16:34;22.25;42.16
66962;HTU21D;53897;51.126;5.868;2023-04-26T00:19:00;22.25;42.19
66962;HTU21D;53897;51.126;5.868;2023-04-26T00:21:26;22.24;42.20
66962;HTU21D;53897;51.126;5.868;2023-04-26T00:23:53;22.23;42.18
66962;HTU21D;53897;51.126;5.868;2023-04-26T00:26:19;22.21;42.17
66962;HTU21D;53897;51.126;5.868;2023-04-26T00:28:46;22.21;42.13
66962;HTU21D;53897;51.126;5.868;2023-04-26T00:31:15;22.18;42.16
66962;HTU21D;53897;51.126;5.868;2023-04-26T00:33:41;22.18;42.14
66962;HTU21D;53897;51.126;5.868;2023-04-26T00:36:07;22.17;42.15
66962;HTU21D;53897;51.126;5.868;2023-04-26T00:38:33;22.14;41.90
66962;HTU21D;53897;51.126;5.868;2023-04-26T00:40:58;22.14;41.90
66962;HTU21D;53897;51.126;5.868;2023-04-26T00:43:24;22.12;41.94
66962;HTU21D;53897;51.126;5.868;2023-04-26T00:45:51;22.11;41.94
66962;HTU21D;53897;51.126;5.868;2023-04-26T00:48:17;22.11;41.95
66962;HTU21D;53897;51.126;5.868;2023-04-26T00:50:43;22.08;41.94
66962;HTU21D;53897;51.126;5.868;2023-04-26T00:53:09;22.08;41.90
66962;HTU21D;53897;51.126;5.868;2023-04-26T00:55:40;22.07;41.86
66962;HTU21D;53897;51.126;5.868;2023-04-26T00:58:06;22.07;41.88
66962;HTU21D;53897;51.126;5.868;2023-04-26T01:00:32;22.05;41.88
66962;HTU21D;53897;51.126;5.868;2023-04-26T01:02:58;22.04;41.85
66962;HTU21D;53897;51.126;5.868;2023-04-26T01:05:24;22.02;41.85
66962;HTU21D;53897;51.126;5.868;2023-04-26T01:07:50;22.02;41.76
66962;HTU21D;53897;51.126;5.868;2023-04-26T01:10:17;22.01;41.79
66962;HTU21D;53897;51.126;5.868;2023-04-26T01:12:42;21.98;41.77
66962;HTU21D;53897;51.126;5.868;2023-04-26T01:15:09;21.98;41.76
66962;HTU21D;53897;51.126;5.868;2023-04-26T01:17:36;21.97;41.74
66962;HTU21D;53897;51.126;5.868;2023-04-26T01:20:03;21.97;41.73
66962;HTU21D;53897;51.126;5.868;2023-04-26T01:22:33;21.94;41.70
66962;HTU21D;53897;51.126;5.868;2023-04-26T01:25:00;21.93;41.49
66962;HTU21D;53897;51.126;5.868;2023-04-26T01:27:31;21.92;41.32
66962;HTU21D;53897;51.126;5.868;2023-04-26T01:29:57;21.91;41.21
66962;HTU21D;53897;51.126;5.868;2023-04-26T01:32:23;21.88;41.13
66962;HTU21D;53897;51.126;5.868;2023-04-26T01:34:48;21.88;41.07
66962;HTU21D;53897;51.126;5.868;2023-04-26T01:37:17;21.87;41.05
66962;HTU21D;53897;51.126;5.868;2023-04-26T01:39:43;21.87;41.01
66962;HTU21D;53897;51.126;5.868;2023-04-26T01:42:08;21.84;41.00
66962;HTU21D;53897;51.126;5.868;2023-04-26T01:44:34;21.82;40.99
66962;HTU21D;53897;51.126;5.868;2023-04-26T01:47:00;21.82;40.99
66962;HTU21D;53897;51.126;5.868;2023-04-26T01:49:26;21.81;40.97
66962;HTU21D;53897;51.126;5.868;2023-04-26T01:51:54;21.79;41.14
66962;HTU21D;53897;51.126;5.868;2023-04-26T01:54:20;21.79;41.29
66962;HTU21D;53897;51.126;5.868;2023-04-26T01:56:45;21.78;41.36
66962;HTU21D;53897;51.126;5.868;2023-04-26T01:59:11;21.77;41.38
66962;HTU21D;53897;51.126;5.868;2023-04-26T02:01:37;21.76;41.26
66962;HTU21D;53897;51.126;5.868;2023-04-26T02:04:03;21.75;41.07
66962;HTU21D;53897;51.126;5.868;2023-04-26T02:06:29;21.74;40.99
66962;HTU21D;53897;51.126;5.868;2023-04-26T02:08:56;21.74;41.11
66962;HTU21D;53897;51.126;5.868;2023-04-26T02:11:22;21.72;41.22
66962;HTU21D;53897;51.126;5.868;2023-04-26T02:13:50;21.70;41.21
66962;HTU21D;53897;51.126;5.868;2023-04-26T02:16:20;21.69;41.26
66962;HTU21D;53897;51.126;5.868;2023-04-26T02:18:46;21.69;41.09
66962;HTU21D;53897;51.126;5.868;2023-04-26T02:21:16;21.67;40.95
66962;HTU21D;53897;51.126;5.868;2023-04-26T02:23:43;21.65;40.84
66962;HTU21D;53897;51.126;5.868;2023-04-26T02:26:09;21.63;40.81
66962;HTU21D;53897;51.126;5.868;2023-04-26T02:28:36;21.63;40.84
66962;HTU21D;53897;51.126;5.868;2023-04-26T02:31:02;21.62;40.79
66962;HTU21D;53897;51.126;5.868;2023-04-26T02:33:28;21.61;40.72
66962;HTU21D;53897;51.126;5.868;2023-04-26T02:35:55;21.61;40.68
66962;HTU21D;53897;51.126;5.868;2023-04-26T02:38:21;21.60;40.59
66962;HTU21D;53897;51.126;5.868;2023-04-26T02:40:47;21.58;40.63
66962;HTU21D;53897;51.126;5.868;2023-04-26T02:43:14;21.58;40.57
66962;HTU21D;53897;51.126;5.868;2023-04-26T02:45:43;21.55;40.62
66962;HTU21D;53897;51.126;5.868;2023-04-26T02:48:11;21.54;40.59
66962;HTU21D;53897;51.126;5.868;2023-04-26T02:50:37;21.54;40.54
66962;HTU21D;53897;51.126;5.868;2023-04-26T02:53:03;21.52;40.50
66962;HTU21D;53897;51.126;5.868;2023-04-26T02:55:29;21.51;40.49
66962;HTU21D;53897;51.126;5.868;2023-04-26T02:57:56;21.50;40.44
66962;HTU21D;53897;51.126;5.868;2023-04-26T03:00:23;21.49;40.41
66962;HTU21D;53897;51.126;5.868;2023-04-26T03:02:49;21.48;40.38
66962;HTU21D;53897;51.126;5.868;2023-04-26T03:05:17;21.48;40.40
66962;HTU21D;53897;51.126;5.868;2023-04-26T03:07:42;21.45;40.39
66962;HTU21D;53897;51.126;5.868;2023-04-26T03:10:08;21.46;40.38
66962;HTU21D;53897;51.126;5.868;2023-04-26T03:12:35;21.45;40.33
66962;HTU21D;53897;51.126;5.868;2023-04-26T03:15:01;21.44;40.31
66962;HTU21D;53897;51.126;5.868;2023-04-26T03:17:29;21.42;40.29
66962;HTU21D;53897;51.126;5.868;2023-04-26T03:19:55;21.42;40.27
66962;HTU21D;53897;51.126;5.868;2023-04-26T03:22:21;21.39;40.27
66962;HTU21D;53897;51.126;5.868;2023-04-26T03:24:48;21.38;40.26
66962;HTU21D;53897;51.126;5.868;2023-04-26T03:27:14;21.38;40.23
66962;HTU21D;53897;51.126;5.868;2023-04-26T03:29:40;21.37;40.23
66962;HTU21D;53897;51.126;5.868;2023-04-26T03:32:05;21.36;40.23
66962;HTU21D;53897;51.126;5.868;2023-04-26T03:34:32;21.34;40.23
66962;HTU21D;53897;51.126;5.868;2023-04-26T03:36:57;21.35;40.21
66962;HTU21D;53897;51.126;5.868;2023-04-26T03:39:23;21.34;40.17
66962;HTU21D;53897;51.126;5.868;2023-04-26T03:41:49;21.33;40.15
66962;HTU21D;53897;51.126;5.868;2023-04-26T03:44:15;21.32;40.12
66962;HTU21D;53897;51.126;5.868;2023-04-26T03:46:42;21.32;40.09
66962;HTU21D;53897;51.126;5.868;2023-04-26T03:49:08;21.30;40.11
66962;HTU21D;53897;51.126;5.868;2023-04-26T03:51:34;21.29;40.12
66962;HTU21D;53897;51.126;5.868;2023-04-26T03:53:59;21.28;40.10
66962;HTU21D;53897;51.126;5.868;2023-04-26T03:56:25;21.28;40.09
66962;HTU21D;53897;51.126;5.868;2023-04-26T03:58:51;21.25;40.10
66962;HTU21D;53897;51.126;5.868;2023-04-26T04:01:17;21.25;40.10
66962;HTU21D;53897;51.126;5.868;2023-04-26T04:03:44;21.24;40.11
66962;HTU21D;53897;51.126;5.868;2023-04-26T04:06:10;21.23;40.30
66962;HTU21D;53897;51.126;5.868;2023-04-26T04:08:37;21.23;40.48
66962;HTU21D;53897;51.126;5.868;2023-04-26T04:11:03;21.20;40.60
66962;HTU21D;53897;51.126;5.868;2023-04-26T04:13:31;21.19;40.68
66962;HTU21D;53897;51.126;5.868;2023-04-26T04:15:56;21.17;40.78
66962;HTU21D;53897;51.126;5.868;2023-04-26T04:18:22;21.15;40.86
66962;HTU21D;53897;51.126;5.868;2023-04-26T04:20:48;21.11;40.94
66962;HTU21D;53897;51.126;5.868;2023-04-26T04:23:14;21.08;41.01
66962;HTU21D;53897;51.126;5.868;2023-04-26T04:25:40;21.07;41.06
66962;HTU21D;53897;51.126;5.868;2023-04-26T04:28:09;21.05;41.12
66962;HTU21D;53897;51.126;5.868;2023-04-26T04:30:35;21.05;41.12
66962;HTU21D;53897;51.126;5.868;2023-04-26T04:33:01;21.04;41.17
66962;HTU21D;53897;51.126;5.868;2023-04-26T04:35:30;21.02;41.22
66962;HTU21D;53897;51.126;5.868;2023-04-26T04:37:58;20.99;41.31
66962;HTU21D;53897;51.126;5.868;2023-04-26T04:40:24;20.95;41.36
66962;HTU21D;53897;51.126;5.868;2023-04-26T04:42:51;20.93;41.41
66962;HTU21D;53897;51.126;5.868;2023-04-26T04:45:19;20.92;41.45
66962;HTU21D;53897;51.126;5.868;2023-04-26T04:47:47;20.90;41.48
66962;HTU21D;53897;51.126;5.868;2023-04-26T04:50:12;20.89;41.52
66962;HTU21D;53897;51.126;5.868;2023-04-26T04:52:39;20.90;41.57
66962;HTU21D;53897;51.126;5.868;2023-04-26T04:55:05;20.90;41.61
66962;HTU21D;53897;51.126;5.868;2023-04-26T04:57:34;20.91;41.63
66962;HTU21D;53897;51.126;5.868;2023-04-26T05:00:00;20.94;41.65
66962;HTU21D;53897;51.126;5.868;2023-04-26T05:02:35;20.94;41.65
66962;HTU21D;53897;51.126;5.868;2023-04-26T05:05:03;20.98;41.64
66962;HTU21D;53897;51.126;5.868;2023-04-26T05:07:33;21.00;41.68
66962;HTU21D;53897;51.126;5.868;2023-04-26T05:10:00;21.04;41.76
66962;HTU21D;53897;51.126;5.868;2023-04-26T05:12:26;21.07;41.78
66962;HTU21D;53897;51.126;5.868;2023-04-26T05:14:52;21.09;41.81
66962;HTU21D;53897;51.126;5.868;2023-04-26T05:17:18;21.13;41.83
66962;HTU21D;53897;51.126;5.868;2023-04-26T05:19:45;21.16;41.85
66962;HTU21D;53897;51.126;5.868;2023-04-26T05:22:11;21.20;41.93
66962;HTU21D;53897;51.126;5.868;2023-04-26T05:24:45;21.23;41.94
66962;HTU21D;53897;51.126;5.868;2023-04-26T05:27:11;21.25;42.00
66962;HTU21D;53897;51.126;5.868;2023-04-26T05:29:44;21.30;41.97
66962;HTU21D;53897;51.126;5.868;2023-04-26T05:32:29;21.34;41.88
66962;HTU21D;53897;51.126;5.868;2023-04-26T05:35:15;21.37;41.81
66962;HTU21D;53897;51.126;5.868;2023-04-26T05:37:40;21.42;41.85
66962;HTU21D;53897;51.126;5.868;2023-04-26T05:40:07;21.47;41.85
66962;HTU21D;53897;51.126;5.868;2023-04-26T05:42:33;21.50;41.84
66962;HTU21D;53897;51.126;5.868;2023-04-26T05:44:59;21.55;41.83
66962;HTU21D;53897;51.126;5.868;2023-04-26T05:47:26;21.59;41.84
66962;HTU21D;53897;51.126;5.868;2023-04-26T05:49:52;21.64;41.87
66962;HTU21D;53897;51.126;5.868;2023-04-26T05:52:18;21.68;41.94
66962;HTU21D;53897;51.126;5.868;2023-04-26T05:54:43;21.74;41.95
66962;HTU21D;53897;51.126;5.868;2023-04-26T05:57:09;21.80;41.94
66962;HTU21D;53897;51.126;5.868;2023-04-26T05:59:36;21.85;41.90
66962;HTU21D;53897;51.126;5.868;2023-04-26T06:02:03;21.90;41.88
66962;HTU21D;53897;51.126;5.868;2023-04-26T06:04:29;21.95;41.87
66962;HTU21D;53897;51.126;5.868;2023-04-26T06:07:15;21.97;41.87
66962;HTU21D;53897;51.126;5.868;2023-04-26T06:09:42;22.02;41.87
66962;HTU21D;53897;51.126;5.868;2023-04-26T06:12:08;22.06;41.72
66962;HTU21D;53897;51.126;5.868;2023-04-26T06:14:38;22.09;41.68
66962;HTU21D;53897;51.126;5.868;2023-04-26T06:17:07;22.11;41.68
66962;HTU21D;53897;51.126;5.868;2023-04-26T06:19:34;22.16;41.67
66962;HTU21D;53897;51.126;5.868;2023-04-26T06:22:00;22.19;41.68
66962;HTU21D;53897;51.126;5.868;2023-04-26T06:24:26;22.22;41.64
66962;HTU21D;53897;51.126;5.868;2023-04-26T06:26:52;22.24;41.62
66962;HTU21D;53897;51.126;5.868;2023-04-26T06:29:19;22.26;41.53
66962;HTU21D;53897;51.126;5.868;2023-04-26T06:31:45;22.31;41.51
66962;HTU21D;53897;51.126;5.868;2023-04-26T06:34:12;22.32;41.44
66962;HTU21D;53897;51.126;5.868;2023-04-26T06:36:38;22.33;41.36
66962;HTU21D;53897;51.126;5.868;2023-04-26T06:39:04;22.35;41.30
66962;HTU21D;53897;51.126;5.868;2023-04-26T06:41:31;22.37;41.24
66962;HTU21D;53897;51.126;5.868;2023-04-26T06:43:57;22.38;41.17
66962;HTU21D;53897;51.126;5.868;2023-04-26T06:46:29;22.39;41.10
66962;HTU21D;53897;51.126;5.868;2023-04-26T06:48:55;22.40;41.07
66962;HTU21D;53897;51.126;5.868;2023-04-26T06:51:21;22.43;40.97
66962;HTU21D;53897;51.126;5.868;2023-04-26T06:53:47;22.44;40.91
66962;HTU21D;53897;51.126;5.868;2023-04-26T06:56:13;22.44;40.94
66962;HTU21D;53897;51.126;5.868;2023-04-26T06:59:00;22.44;40.92
66962;HTU21D;53897;51.126;5.868;2023-04-26T07:01:27;22.46;40.90
66962;HTU21D;53897;51.126;5.868;2023-04-26T07:03:56;22.47;40.87
66962;HTU21D;53897;51.126;5.868;2023-04-26T07:06:25;22.48;40.80
66962;HTU21D;53897;51.126;5.868;2023-04-26T07:08:51;22.48;40.73
66962;HTU21D;53897;51.126;5.868;2023-04-26T07:11:17;22.49;40.70
66962;HTU21D;53897;51.126;5.868;2023-04-26T07:13:42;22.50;40.70
66962;HTU21D;53897;51.126;5.868;2023-04-26T07:16:09;22.51;40.65
66962;HTU21D;53897;51.126;5.868;2023-04-26T07:18:34;22.51;40.64
66962;HTU21D;53897;51.126;5.868;2023-04-26T07:21:00;22.51;40.62
66962;HTU21D;53897;51.126;5.868;2023-04-26T07:23:28;22.52;40.61
66962;HTU21D;53897;51.126;5.868;2023-04-26T07:25:54;22.53;40.58
66962;HTU21D;53897;51.126;5.868;2023-04-26T07:28:19;22.55;40.55
66962;HTU21D;53897;51.126;5.868;2023-04-26T07:30:45;22.55;40.54
66962;HTU21D;53897;51.126;5.868;2023-04-26T07:33:11;22.55;40.55
66962;HTU21D;53897;51.126;5.868;2023-04-26T07:35:37;22.56;40.56
66962;HTU21D;53897;51.126;5.868;2023-04-26T07:38:04;22.56;40.54
66962;HTU21D;53897;51.126;5.868;2023-04-26T07:40:30;22.57;40.53
66962;HTU21D;53897;51.126;5.868;2023-04-26T07:42:56;22.60;40.50
66962;HTU21D;53897;51.126;5.868;2023-04-26T07:45:21;22.58;40.52
66962;HTU21D;53897;51.126;5.868;2023-04-26T07:47:47;22.60;40.47
66962;HTU21D;53897;51.126;5.868;2023-04-26T07:50:13;22.61;40.45
66962;HTU21D;53897;51.126;5.868;2023-04-26T07:52:38;22.61;40.39
66962;HTU21D;53897;51.126;5.868;2023-04-26T07:55:05;22.61;40.33
66962;HTU21D;53897;51.126;5.868;2023-04-26T07:57:31;22.62;40.26
66962;HTU21D;53897;51.126;5.868;2023-04-26T07:59:56;22.64;40.27
66962;HTU21D;53897;51.126;5.868;2023-04-26T08:02:22;22.62;40.24
66962;HTU21D;53897;51.126;5.868;2023-04-26T08:04:49;22.64;40.32
66962;HTU21D;53897;51.126;5.868;2023-04-26T08:07:18;22.65;40.31
66962;HTU21D;53897;51.126;5.868;2023-04-26T08:09:44;22.65;40.27
66962;HTU21D;53897;51.126;5.868;2023-04-26T08:12:10;22.67;40.26
66962;HTU21D;53897;51.126;5.868;2023-04-26T08:14:37;22.66;40.22
66962;HTU21D;53897;51.126;5.868;2023-04-26T08:17:03;22.66;40.21
66962;HTU21D;53897;51.126;5.868;2023-04-26T08:19:30;22.68;40.20
66962;HTU21D;53897;51.126;5.868;2023-04-26T08:21:58;22.68;40.19
66962;HTU21D;53897;51.126;5.868;2023-04-26T08:24:24;22.69;40.13
66962;HTU21D;53897;51.126;5.868;2023-04-26T08:26:49;22.68;40.12
66962;HTU21D;53897;51.126;5.868;2023-04-26T08:29:15;22.70;40.13
66962;HTU21D;53897;51.126;5.868;2023-04-26T08:31:41;22.70;40.08
66962;HTU21D;53897;51.126;5.868;2023-04-26T08:34:07;22.70;40.05
66962;HTU21D;53897;51.126;5.868;2023-04-26T08:36:40;22.71;40.02
66962;HTU21D;53897;51.126;5.868;2023-04-26T08:39:07;22.71;40.01
66962;HTU21D;53897;51.126;5.868;2023-04-26T08:41:41;22.73;40.01
66962;HTU21D;53897;51.126;5.868;2023-04-26T08:44:07;22.75;39.95
66962;HTU21D;53897;51.126;5.868;2023-04-26T08:46:46;22.75;39.95
66962;HTU21D;53897;51.126;5.868;2023-04-26T08:52:09;22.76;39.87
66962;HTU21D;53897;51.126;5.868;2023-04-26T08:54:37;22.77;39.87
66962;HTU21D;53897;51.126;5.868;2023-04-26T08:57:03;22.76;39.85
66962;HTU21D;53897;51.126;5.868;2023-04-26T08:59:31;22.78;39.83
66962;HTU21D;53897;51.126;5.868;2023-04-26T09:01:59;22.78;39.72
66962;HTU21D;53897;51.126;5.868;2023-04-26T09:04:27;22.77;39.74
66962;HTU21D;53897;51.126;5.868;2023-04-26T09:06:59;22.78;39.80
66962;HTU21D;53897;51.126;5.868;2023-04-26T09:09:27;22.78;39.91
66962;HTU21D;53897;51.126;5.868;2023-04-26T09:11:59;22.80;40.05
66962;HTU21D;53897;51.126;5.868;2023-04-26T09:14:26;22.82;40.20
66962;HTU21D;53897;51.126;5.868;2023-04-26T09:16:53;22.83;40.35
66962;HTU21D;53897;51.126;5.868;2023-04-26T09:19:38;22.84;40.34
66962;HTU21D;53897;51.126;5.868;2023-04-26T09:22:05;22.86;40.43
66962;HTU21D;53897;51.126;5.868;2023-04-26T09:24:50;22.88;40.52
66962;HTU21D;53897;51.126;5.868;2023-04-26T09:27:19;22.90;40.55
66962;HTU21D;53897;51.126;5.868;2023-04-26T09:30:03;22.92;40.64
66962;HTU21D;53897;51.126;5.868;2023-04-26T09:32:52;22.93;40.55
66962;HTU21D;53897;51.126;5.868;2023-04-26T09:37:53;22.96;40.35
66962;HTU21D;53897;51.126;5.868;2023-04-26T09:40:20;22.96;40.37
66962;HTU21D;53897;51.126;5.868;2023-04-26T09:42:46;22.97;40.39
66962;HTU21D;53897;51.126;5.868;2023-04-26T09:45:13;22.99;40.39
66962;HTU21D;53897;51.126;5.868;2023-04-26T09:47:42;23.00;40.37
66962;HTU21D;53897;51.126;5.868;2023-04-26T09:50:08;23.01;40.33
66962;HTU21D;53897;51.126;5.868;2023-04-26T09:52:42;23.02;40.28
66962;HTU21D;53897;51.126;5.868;2023-04-26T09:55:09;23.03;40.26
66962;HTU21D;53897;51.126;5.868;2023-04-26T09:57:41;23.05;40.20
66962;HTU21D;53897;51.126;5.868;2023-04-26T10:00:09;23.07;40.13
66962;HTU21D;53897;51.126;5.868;2023-04-26T10:02:37;23.09;40.16
66962;HTU21D;53897;51.126;5.868;2023-04-26T10:05:05;23.10;40.34
66962;HTU21D;53897;51.126;5.868;2023-04-26T10:07:32;23.11;40.40
66962;HTU21D;53897;51.126;5.868;2023-04-26T10:09:58;23.13;40.41
66962;HTU21D;53897;51.126;5.868;2023-04-26T10:12:26;23.14;40.43
66962;HTU21D;53897;51.126;5.868;2023-04-26T10:14:52;23.15;40.43
66962;HTU21D;53897;51.126;5.868;2023-04-26T10:17:18;23.17;40.46
66962;HTU21D;53897;51.126;5.868;2023-04-26T10:19:48;23.20;40.46
66962;HTU21D;53897;51.126;5.868;2023-04-26T10:22:26;23.21;40.44
66962;HTU21D;53897;51.126;5.868;2023-04-26T10:24:54;23.22;40.39
66962;HTU21D;53897;51.126;5.868;2023-04-26T10:30:15;23.24;40.36
66962;HTU21D;53897;51.126;5.868;2023-04-26T10:35:18;23.28;40.36
66962;HTU21D;53897;51.126;5.868;2023-04-26T10:40:30;23.30;40.39
66962;HTU21D;53897;51.126;5.868;2023-04-26T10:45:41;23.34;40.38
66962;HTU21D;53897;51.126;5.868;2023-04-26T10:48:14;23.34;40.35
66962;HTU21D;53897;51.126;5.868;2023-04-26T10:53:31;23.38;40.30
66962;HTU21D;53897;51.126;5.868;2023-04-26T10:55:58;23.37;40.27
66962;HTU21D;53897;51.126;5.868;2023-04-26T10:58:30;23.37;40.17
66962;HTU21D;53897;51.126;5.868;2023-04-26T11:01:07;23.39;40.19
66962;HTU21D;53897;51.126;5.868;2023-04-26T11:03:35;23.41;40.16
66962;HTU21D;53897;51.126;5.868;2023-04-26T11:06:10;23.40;40.18
66962;HTU21D;53897;51.126;5.868;2023-04-26T11:08:40;23.41;40.17
66962;HTU21D;53897;51.126;5.868;2023-04-26T11:11:10;23.43;40.13
66962;HTU21D;53897;51.126;5.868;2023-04-26T11:13:38;23.43;40.10
66962;HTU21D;53897;51.126;5.868;2023-04-26T11:16:09;23.43;40.07
66962;HTU21D;53897;51.126;5.868;2023-04-26T11:18:37;23.44;40.04
66962;HTU21D;53897;51.126;5.868;2023-04-26T11:21:05;23.45;40.00
66962;HTU21D;53897;51.126;5.868;2023-04-26T11:23:31;23.46;39.97
66962;HTU21D;53897;51.126;5.868;2023-04-26T11:26:02;23.46;39.94
66962;HTU21D;53897;51.126;5.868;2023-04-26T11:28:29;23.46;39.92
66962;HTU21D;53897;51.126;5.868;2023-04-26T11:30:54;23.47;39.88
66962;HTU21D;53897;51.126;5.868;2023-04-26T11:33:20;23.46;39.87
66962;HTU21D;53897;51.126;5.868;2023-04-26T11:35:54;23.49;39.86
66962;HTU21D;53897;51.126;5.868;2023-04-26T11:38:27;23.50;39.85
66962;HTU21D;53897;51.126;5.868;2023-04-26T11:40:59;23.49;39.81
66962;HTU21D;53897;51.126;5.868;2023-04-26T11:46:00;23.50;39.75
66962;HTU21D;53897;51.126;5.868;2023-04-26T11:48:27;23.51;39.75
66962;HTU21D;53897;51.126;5.868;2023-04-26T11:51:07;23.52;39.77
66962;HTU21D;53897;51.126;5.868;2023-04-26T11:53:41;23.51;39.75
66962;HTU21D;53897;51.126;5.868;2023-04-26T11:56:18;23.53;39.74
66962;HTU21D;53897;51.126;5.868;2023-04-26T11:58:45;23.52;39.73
66962;HTU21D;53897;51.126;5.868;2023-04-26T12:01:10;23.53;39.69
66962;HTU21D;53897;51.126;5.868;2023-04-26T12:03:36;23.56;39.62
66962;HTU21D;53897;51.126;5.868;2023-04-26T12:06:03;23.56;39.56
66962;HTU21D;53897;51.126;5.868;2023-04-26T12:08:29;23.56;39.58
66962;HTU21D;53897;51.126;5.868;2023-04-26T12:11:01;23.59;39.47
66962;HTU21D;53897;51.126;5.868;2023-04-26T12:13:30;23.58;39.46
66962;HTU21D;53897;51.126;5.868;2023-04-26T12:15:57;23.60;39.51
66962;HTU21D;53897;51.126;5.868;2023-04-26T12:18:30;23.61;39.52
66962;HTU21D;53897;51.126;5.868;2023-04-26T12:20:57;23.62;39.53
66962;HTU21D;53897;51.126;5.868;2023-04-26T12:23:24;23.62;39.51
66962;HTU21D;53897;51.126;5.868;2023-04-26T12:25:55;23.64;39.49
66962;HTU21D;53897;51.126;5.868;2023-04-26T12:28:22;23.66;39.49
66962;HTU21D;53897;51.126;5.868;2023-04-26T12:30:50;23.66;39.44
66962;HTU21D;53897;51.126;5.868;2023-04-26T12:33:16;23.68;39.35
66962;HTU21D;53897;51.126;5.868;2023-04-26T12:35:45;23.68;39.33
66962;HTU21D;53897;51.126;5.868;2023-04-26T12:38:12;23.68;39.34
66962;HTU21D;53897;51.126;5.868;2023-04-26T12:40:38;23.69;39.39
66962;HTU21D;53897;51.126;5.868;2023-04-26T12:43:04;23.68;39.44
66962;HTU21D;53897;51.126;5.868;2023-04-26T12:45:29;23.69;39.49
66962;HTU21D;53897;51.126;5.868;2023-04-26T12:47:55;23.70;39.60
66962;HTU21D;53897;51.126;5.868;2023-04-26T12:50:21;23.71;39.68
66962;HTU21D;53897;51.126;5.868;2023-04-26T12:52:47;23.72;39.78
66962;HTU21D;53897;51.126;5.868;2023-04-26T12:55:14;23.74;39.81
66962;HTU21D;53897;51.126;5.868;2023-04-26T12:57:42;23.75;39.86
66962;HTU21D;53897;51.126;5.868;2023-04-26T13:00:11;23.76;39.86
66962;HTU21D;53897;51.126;5.868;2023-04-26T13:02:37;23.77;39.86
66962;HTU21D;53897;51.126;5.868;2023-04-26T13:05:04;23.77;39.84
66962;HTU21D;53897;51.126;5.868;2023-04-26T13:07:32;23.79;39.85
66962;HTU21D;53897;51.126;5.868;2023-04-26T13:09:59;23.80;39.81
66962;HTU21D;53897;51.126;5.868;2023-04-26T13:12:26;23.82;39.87
66962;HTU21D;53897;51.126;5.868;2023-04-26T13:14:52;23.82;39.77
66962;HTU21D;53897;51.126;5.868;2023-04-26T13:17:19;23.82;39.81
66962;HTU21D;53897;51.126;5.868;2023-04-26T13:19:44;23.83;39.90
66962;HTU21D;53897;51.126;5.868;2023-04-26T13:22:10;23.85;40.01
66962;HTU21D;53897;51.126;5.868;2023-04-26T13:24:36;23.86;40.08
66962;HTU21D;53897;51.126;5.868;2023-04-26T13:27:02;23.87;40.12
66962;HTU21D;53897;51.126;5.868;2023-04-26T13:29:29;23.88;40.13
66962;HTU21D;53897;51.126;5.868;2023-04-26T13:31:56;23.87;40.20
66962;HTU21D;53897;51.126;5.868;2023-04-26T13:34:21;23.88;40.25
66962;HTU21D;53897;51.126;5.868;2023-04-26T13:36:48;23.89;40.13
66962;HTU21D;53897;51.126;5.868;2023-04-26T13:39:13;23.89;40.12
66962;HTU21D;53897;51.126;5.868;2023-04-26T13:41:39;23.90;40.13
66962;HTU21D;53897;51.126;5.868;2023-04-26T13:44:05;23.90;40.12
66962;HTU21D;53897;51.126;5.868;2023-04-26T13:46:30;23.91;40.10
66962;HTU21D;53897;51.126;5.868;2023-04-26T13:48:56;23.91;40.08
66962;HTU21D;53897;51.126;5.868;2023-04-26T13:51:22;23.91;40.07
66962;HTU21D;53897;51.126;5.868;2023-04-26T13:53:50;23.91;40.04
66962;HTU21D;53897;51.126;5.868;2023-04-26T13:56:19;23.91;40.04
66962;HTU21D;53897;51.126;5.868;2023-04-26T13:58:45;23.91;40.01
66962;HTU21D;53897;51.126;5.868;2023-04-26T14:01:11;23.91;39.97
66962;HTU21D;53897;51.126;5.868;2023-04-26T14:03:39;23.90;39.97
66962;HTU21D;53897;51.126;5.868;2023-04-26T14:06:05;23.91;39.95
66962;HTU21D;53897;51.126;5.868;2023-04-26T14:08:32;23.91;39.92
66962;HTU21D;53897;51.126;5.868;2023-04-26T14:10:58;23.91;39.89
66962;HTU21D;53897;51.126;5.868;2023-04-26T14:13:24;23.91;39.89
66962;HTU21D;53897;51.126;5.868;2023-04-26T14:15:50;23.91;39.87
66962;HTU21D;53897;51.126;5.868;2023-04-26T14:18:16;23.89;39.86
66962;HTU21D;53897;51.126;5.868;2023-04-26T14:20:41;23.89;39.85
66962;HTU21D;53897;51.126;5.868;2023-04-26T14:23:07;23.89;39.84
66962;HTU21D;53897;51.126;5.868;2023-04-26T14:25:33;23.88;39.78
66962;HTU21D;53897;51.126;5.868;2023-04-26T14:28:00;23.88;39.64
66962;HTU21D;53897;51.126;5.868;2023-04-26T14:30:27;23.87;39.62
66962;HTU21D;53897;51.126;5.868;2023-04-26T14:32:52;23.86;39.72
66962;HTU21D;53897;51.126;5.868;2023-04-26T14:35:18;23.86;39.76
66962;HTU21D;53897;51.126;5.868;2023-04-26T14:37:44;23.87;39.80
66962;HTU21D;53897;51.126;5.868;2023-04-26T14:40:10;23.86;39.83
66962;HTU21D;53897;51.126;5.868;2023-04-26T14:42:36;23.87;39.82
66962;HTU21D;53897;51.126;5.868;2023-04-26T14:45:02;23.85;39.86
66962;HTU21D;53897;51.126;5.868;2023-04-26T14:47:30;23.86;39.91
66962;HTU21D;53897;51.126;5.868;2023-04-26T14:49:56;23.86;39.92
66962;HTU21D;53897;51.126;5.868;2023-04-26T14:52:22;23.84;39.91
66962;HTU21D;53897;51.126;5.868;2023-04-26T14:54:51;23.85;39.92
66962;HTU21D;53897;51.126;5.868;2023-04-26T14:57:17;23.84;39.83
66962;HTU21D;53897;51.126;5.868;2023-04-26T14:59:42;23.84;39.87
66962;HTU21D;53897;51.126;5.868;2023-04-26T15:02:08;23.84;39.91
66962;HTU21D;53897;51.126;5.868;2023-04-26T15:04:34;23.83;40.08
66962;HTU21D;53897;51.126;5.868;2023-04-26T15:07:01;23.83;40.27
66962;HTU21D;53897;51.126;5.868;2023-04-26T15:09:28;23.84;40.33
66962;HTU21D;53897;51.126;5.868;2023-04-26T15:11:54;23.84;40.36
66962;HTU21D;53897;51.126;5.868;2023-04-26T15:14:20;23.85;40.34
66962;HTU21D;53897;51.126;5.868;2023-04-26T15:16:46;23.85;40.28
66962;HTU21D;53897;51.126;5.868;2023-04-26T15:19:12;23.85;40.33
66962;HTU21D;53897;51.126;5.868;2023-04-26T15:21:37;23.84;40.46
66962;HTU21D;53897;51.126;5.868;2023-04-26T15:24:03;23.85;40.57
66962;HTU21D;53897;51.126;5.868;2023-04-26T15:26:29;23.84;40.62
66962;HTU21D;53897;51.126;5.868;2023-04-26T15:28:56;23.84;40.36
66962;HTU21D;53897;51.126;5.868;2023-04-26T15:31:21;23.84;40.48
66962;HTU21D;53897;51.126;5.868;2023-04-26T15:33:49;23.83;40.51
66962;HTU21D;53897;51.126;5.868;2023-04-26T15:36:14;23.83;40.62
66962;HTU21D;53897;51.126;5.868;2023-04-26T15:38:41;23.85;41.29